sensor_id;sensor_type;location;lat;lon;timestamp;P1;durP1;ratioP1;P2;durP2;ratioP2
19883;SDS011;10104;50.732;10.174;2023-08-24T00:00:18;4.75;;;2.50;;
19883;SDS011;10104;50.732;10.174;2023-08-24T00:02:58;9.55;;;2.40;;
19883;SDS011;10104;50.732;10.174;2023-08-24T00:05:38;3.50;;;2.40;;
19883;SDS011;10104;50.732;10.174;2023-08-24T00:08:20;4.03;;;2.60;;
19883;SDS011;10104;50.732;10.174;2023-08-24T00:11:00;4.60;;;2.70;;
19883;SDS011;10104;50.732;10.174;2023-08-24T00:13:41;3.00;;;2.40;;
19883;SDS011;10104;50.732;10.174;2023-08-24T00:16:28;4.15;;;2.80;;
19883;SDS011;10104;50.732;10.174;2023-08-24T00:19:09;4.07;;;2.90;;
19883;SDS011;10104;50.732;10.174;2023-08-24T00:21:49;6.40;;;2.85;;
19883;SDS011;10104;50.732;10.174;2023-08-24T00:24:29;5.38;;;3.03;;
19883;SDS011;10104;50.732;10.174;2023-08-24T00:27:09;2.97;;;2.50;;
19883;SDS011;10104;50.732;10.174;2023-08-24T00:29:49;3.30;;;2.45;;
19883;SDS011;10104;50.732;10.174;2023-08-24T00:32:30;6.45;;;3.05;;
19883;SDS011;10104;50.732;10.174;2023-08-24T00:35:13;3.03;;;2.72;;
19883;SDS011;10104;50.732;10.174;2023-08-24T00:37:53;2.63;;;2.42;;
19883;SDS011;10104;50.732;10.174;2023-08-24T00:40:33;3.70;;;2.80;;
19883;SDS011;10104;50.732;10.174;2023-08-24T00:43:14;4.20;;;2.38;;
19883;SDS011;10104;50.732;10.174;2023-08-24T00:45:59;7.00;;;2.50;;
19883;SDS011;10104;50.732;10.174;2023-08-24T00:48:41;2.65;;;2.45;;
19883;SDS011;10104;50.732;10.174;2023-08-24T00:51:21;5.38;;;2.65;;
19883;SDS011;10104;50.732;10.174;2023-08-24T00:54:02;3.95;;;2.65;;
19883;SDS011;10104;50.732;10.174;2023-08-24T00:56:42;4.57;;;2.63;;
19883;SDS011;10104;50.732;10.174;2023-08-24T00:59:23;2.70;;;2.40;;
19883;SDS011;10104;50.732;10.174;2023-08-24T01:02:03;3.75;;;2.40;;
19883;SDS011;10104;50.732;10.174;2023-08-24T01:04:43;2.85;;;2.10;;
19883;SDS011;10104;50.732;10.174;2023-08-24T01:07:24;9.60;;;2.72;;
19883;SDS011;10104;50.732;10.174;2023-08-24T01:10:05;4.95;;;2.53;;
19883;SDS011;10104;50.732;10.174;2023-08-24T01:15:48;2.60;;;2.40;;
19883;SDS011;10104;50.732;10.174;2023-08-24T01:18:35;3.47;;;2.40;;
19883;SDS011;10104;50.732;10.174;2023-08-24T01:21:18;8.00;;;2.70;;
19883;SDS011;10104;50.732;10.174;2023-08-24T01:24:03;5.68;;;2.63;;
19883;SDS011;10104;50.732;10.174;2023-08-24T01:26:50;2.97;;;2.50;;
19883;SDS011;10104;50.732;10.174;2023-08-24T01:29:32;8.07;;;3.38;;
19883;SDS011;10104;50.732;10.174;2023-08-24T01:32:12;5.35;;;2.67;;
19883;SDS011;10104;50.732;10.174;2023-08-24T01:34:52;4.60;;;2.60;;
19883;SDS011;10104;50.732;10.174;2023-08-24T01:37:34;8.68;;;3.05;;
19883;SDS011;10104;50.732;10.174;2023-08-24T01:40:20;5.13;;;2.95;;
19883;SDS011;10104;50.732;10.174;2023-08-24T01:43:06;5.35;;;2.90;;
19883;SDS011;10104;50.732;10.174;2023-08-24T01:45:48;10.52;;;2.53;;
19883;SDS011;10104;50.732;10.174;2023-08-24T01:48:29;5.72;;;2.50;;
19883;SDS011;10104;50.732;10.174;2023-08-24T01:51:11;6.32;;;2.60;;
19883;SDS011;10104;50.732;10.174;2023-08-24T01:53:52;5.00;;;2.72;;
19883;SDS011;10104;50.732;10.174;2023-08-24T01:56:33;3.70;;;2.70;;
19883;SDS011;10104;50.732;10.174;2023-08-24T01:59:14;5.63;;;3.05;;
19883;SDS011;10104;50.732;10.174;2023-08-24T02:01:54;4.80;;;2.80;;
19883;SDS011;10104;50.732;10.174;2023-08-24T02:04:34;4.78;;;2.88;;
19883;SDS011;10104;50.732;10.174;2023-08-24T02:07:14;3.95;;;2.35;;
19883;SDS011;10104;50.732;10.174;2023-08-24T02:09:54;4.28;;;3.20;;
19883;SDS011;10104;50.732;10.174;2023-08-24T02:12:34;4.30;;;2.70;;
19883;SDS011;10104;50.732;10.174;2023-08-24T02:15:15;6.68;;;3.08;;
19883;SDS011;10104;50.732;10.174;2023-08-24T02:17:55;3.92;;;3.05;;
19883;SDS011;10104;50.732;10.174;2023-08-24T02:20:35;3.42;;;3.10;;
19883;SDS011;10104;50.732;10.174;2023-08-24T02:23:16;4.03;;;2.95;;
19883;SDS011;10104;50.732;10.174;2023-08-24T02:25:56;5.05;;;2.95;;
19883;SDS011;10104;50.732;10.174;2023-08-24T02:28:36;5.32;;;2.72;;
19883;SDS011;10104;50.732;10.174;2023-08-24T02:31:17;3.63;;;2.92;;
19883;SDS011;10104;50.732;10.174;2023-08-24T02:33:57;3.93;;;3.10;;
19883;SDS011;10104;50.732;10.174;2023-08-24T02:36:38;6.30;;;3.03;;
19883;SDS011;10104;50.732;10.174;2023-08-24T02:39:18;4.77;;;3.17;;
19883;SDS011;10104;50.732;10.174;2023-08-24T02:41:58;5.57;;;3.50;;
19883;SDS011;10104;50.732;10.174;2023-08-24T02:44:38;5.45;;;3.25;;
19883;SDS011;10104;50.732;10.174;2023-08-24T02:47:18;3.47;;;3.17;;
19883;SDS011;10104;50.732;10.174;2023-08-24T02:49:58;5.13;;;3.05;;
19883;SDS011;10104;50.732;10.174;2023-08-24T02:52:38;4.90;;;3.37;;
19883;SDS011;10104;50.732;10.174;2023-08-24T02:55:19;7.10;;;3.28;;
19883;SDS011;10104;50.732;10.174;2023-08-24T02:57:59;5.83;;;2.97;;
19883;SDS011;10104;50.732;10.174;2023-08-24T03:00:39;8.53;;;3.20;;
19883;SDS011;10104;50.732;10.174;2023-08-24T03:03:20;7.57;;;3.10;;
19883;SDS011;10104;50.732;10.174;2023-08-24T03:06:01;9.10;;;3.40;;
19883;SDS011;10104;50.732;10.174;2023-08-24T03:08:42;9.50;;;3.40;;
19883;SDS011;10104;50.732;10.174;2023-08-24T03:11:23;6.03;;;3.20;;
19883;SDS011;10104;50.732;10.174;2023-08-24T03:14:02;5.15;;;3.10;;
19883;SDS011;10104;50.732;10.174;2023-08-24T03:16:43;5.53;;;3.42;;
19883;SDS011;10104;50.732;10.174;2023-08-24T03:19:23;7.17;;;3.20;;
19883;SDS011;10104;50.732;10.174;2023-08-24T03:22:03;5.38;;;2.78;;
19883;SDS011;10104;50.732;10.174;2023-08-24T03:24:43;3.00;;;2.67;;
19883;SDS011;10104;50.732;10.174;2023-08-24T03:27:23;6.07;;;2.85;;
19883;SDS011;10104;50.732;10.174;2023-08-24T03:30:04;3.95;;;2.72;;
19883;SDS011;10104;50.732;10.174;2023-08-24T03:32:44;4.35;;;2.65;;
19883;SDS011;10104;50.732;10.174;2023-08-24T03:35:24;7.03;;;3.10;;
19883;SDS011;10104;50.732;10.174;2023-08-24T03:38:05;5.25;;;3.20;;
19883;SDS011;10104;50.732;10.174;2023-08-24T03:40:45;5.03;;;2.65;;
19883;SDS011;10104;50.732;10.174;2023-08-24T03:43:26;3.67;;;3.20;;
19883;SDS011;10104;50.732;10.174;2023-08-24T03:46:06;6.35;;;3.33;;
19883;SDS011;10104;50.732;10.174;2023-08-24T03:48:46;4.93;;;3.17;;
19883;SDS011;10104;50.732;10.174;2023-08-24T03:51:27;6.37;;;3.60;;
19883;SDS011;10104;50.732;10.174;2023-08-24T03:54:07;5.03;;;3.20;;
19883;SDS011;10104;50.732;10.174;2023-08-24T03:56:47;5.37;;;3.40;;
19883;SDS011;10104;50.732;10.174;2023-08-24T03:59:28;5.43;;;3.10;;
19883;SDS011;10104;50.732;10.174;2023-08-24T04:02:08;6.13;;;3.28;;
19883;SDS011;10104;50.732;10.174;2023-08-24T04:04:48;8.17;;;3.53;;
19883;SDS011;10104;50.732;10.174;2023-08-24T04:07:29;5.17;;;3.10;;
19883;SDS011;10104;50.732;10.174;2023-08-24T04:10:11;3.73;;;3.30;;
19883;SDS011;10104;50.732;10.174;2023-08-24T04:12:51;4.50;;;3.10;;
19883;SDS011;10104;50.732;10.174;2023-08-24T04:15:31;4.23;;;2.80;;
19883;SDS011;10104;50.732;10.174;2023-08-24T04:18:12;5.97;;;3.33;;
19883;SDS011;10104;50.732;10.174;2023-08-24T04:20:52;8.80;;;3.37;;
19883;SDS011;10104;50.732;10.174;2023-08-24T04:23:35;6.63;;;3.50;;
19883;SDS011;10104;50.732;10.174;2023-08-24T04:26:15;4.18;;;3.50;;
19883;SDS011;10104;50.732;10.174;2023-08-24T04:28:56;5.23;;;3.50;;
19883;SDS011;10104;50.732;10.174;2023-08-24T04:31:36;4.15;;;3.22;;
19883;SDS011;10104;50.732;10.174;2023-08-24T04:34:17;4.05;;;3.60;;
19883;SDS011;10104;50.732;10.174;2023-08-24T04:36:57;5.07;;;3.38;;
19883;SDS011;10104;50.732;10.174;2023-08-24T04:39:38;4.63;;;3.33;;
19883;SDS011;10104;50.732;10.174;2023-08-24T04:42:17;6.53;;;3.60;;
19883;SDS011;10104;50.732;10.174;2023-08-24T04:44:58;7.63;;;3.65;;
19883;SDS011;10104;50.732;10.174;2023-08-24T04:47:40;3.87;;;3.23;;
19883;SDS011;10104;50.732;10.174;2023-08-24T04:50:20;4.47;;;3.67;;
19883;SDS011;10104;50.732;10.174;2023-08-24T04:53:00;4.70;;;4.00;;
19883;SDS011;10104;50.732;10.174;2023-08-24T04:55:41;5.22;;;3.20;;
19883;SDS011;10104;50.732;10.174;2023-08-24T04:58:21;3.67;;;2.90;;
19883;SDS011;10104;50.732;10.174;2023-08-24T05:01:03;4.03;;;3.35;;
19883;SDS011;10104;50.732;10.174;2023-08-24T05:03:42;4.95;;;3.00;;
19883;SDS011;10104;50.732;10.174;2023-08-24T05:06:23;7.05;;;3.78;;
19883;SDS011;10104;50.732;10.174;2023-08-24T05:09:03;7.78;;;4.50;;
19883;SDS011;10104;50.732;10.174;2023-08-24T05:11:43;4.35;;;3.38;;
19883;SDS011;10104;50.732;10.174;2023-08-24T05:14:23;4.95;;;3.50;;
19883;SDS011;10104;50.732;10.174;2023-08-24T05:17:04;4.68;;;3.20;;
19883;SDS011;10104;50.732;10.174;2023-08-24T05:19:44;5.82;;;3.28;;
19883;SDS011;10104;50.732;10.174;2023-08-24T05:22:24;4.60;;;3.60;;
19883;SDS011;10104;50.732;10.174;2023-08-24T05:25:04;7.22;;;3.60;;
19883;SDS011;10104;50.732;10.174;2023-08-24T05:27:45;4.97;;;3.20;;
19883;SDS011;10104;50.732;10.174;2023-08-24T05:30:25;6.35;;;3.42;;
19883;SDS011;10104;50.732;10.174;2023-08-24T05:33:09;4.38;;;3.22;;
19883;SDS011;10104;50.732;10.174;2023-08-24T05:35:49;6.18;;;3.28;;
19883;SDS011;10104;50.732;10.174;2023-08-24T05:38:31;6.85;;;4.18;;
19883;SDS011;10104;50.732;10.174;2023-08-24T05:41:11;6.13;;;4.63;;
19883;SDS011;10104;50.732;10.174;2023-08-24T05:43:51;8.43;;;4.40;;
19883;SDS011;10104;50.732;10.174;2023-08-24T05:46:32;5.32;;;4.47;;
19883;SDS011;10104;50.732;10.174;2023-08-24T05:49:13;7.95;;;4.10;;
19883;SDS011;10104;50.732;10.174;2023-08-24T05:51:53;12.90;;;4.75;;
19883;SDS011;10104;50.732;10.174;2023-08-24T05:54:35;6.03;;;4.25;;
19883;SDS011;10104;50.732;10.174;2023-08-24T05:57:16;7.40;;;4.65;;
19883;SDS011;10104;50.732;10.174;2023-08-24T05:59:56;7.47;;;4.68;;
19883;SDS011;10104;50.732;10.174;2023-08-24T06:02:37;9.85;;;4.75;;
19883;SDS011;10104;50.732;10.174;2023-08-24T06:05:17;7.57;;;4.43;;
19883;SDS011;10104;50.732;10.174;2023-08-24T06:07:58;5.40;;;4.03;;
19883;SDS011;10104;50.732;10.174;2023-08-24T06:10:39;6.32;;;4.05;;
19883;SDS011;10104;50.732;10.174;2023-08-24T06:13:19;6.55;;;4.38;;
19883;SDS011;10104;50.732;10.174;2023-08-24T06:15:59;6.22;;;3.80;;
19883;SDS011;10104;50.732;10.174;2023-08-24T06:18:39;8.93;;;4.75;;
19883;SDS011;10104;50.732;10.174;2023-08-24T06:21:19;8.48;;;4.43;;
19883;SDS011;10104;50.732;10.174;2023-08-24T06:24:00;5.18;;;4.00;;
19883;SDS011;10104;50.732;10.174;2023-08-24T06:26:41;6.15;;;4.55;;
19883;SDS011;10104;50.732;10.174;2023-08-24T06:29:21;9.43;;;4.90;;
19883;SDS011;10104;50.732;10.174;2023-08-24T06:32:01;6.40;;;4.47;;
19883;SDS011;10104;50.732;10.174;2023-08-24T06:34:41;7.72;;;4.45;;
19883;SDS011;10104;50.732;10.174;2023-08-24T06:37:25;6.75;;;4.65;;
19883;SDS011;10104;50.732;10.174;2023-08-24T06:40:05;5.80;;;4.35;;
19883;SDS011;10104;50.732;10.174;2023-08-24T06:42:46;5.38;;;4.78;;
19883;SDS011;10104;50.732;10.174;2023-08-24T06:45:26;7.70;;;3.95;;
19883;SDS011;10104;50.732;10.174;2023-08-24T06:48:06;7.60;;;4.38;;
19883;SDS011;10104;50.732;10.174;2023-08-24T06:50:47;7.05;;;4.50;;
19883;SDS011;10104;50.732;10.174;2023-08-24T06:53:27;7.47;;;4.10;;
19883;SDS011;10104;50.732;10.174;2023-08-24T06:56:07;5.38;;;4.25;;
19883;SDS011;10104;50.732;10.174;2023-08-24T06:58:48;8.45;;;4.95;;
19883;SDS011;10104;50.732;10.174;2023-08-24T07:01:29;5.60;;;4.20;;
19883;SDS011;10104;50.732;10.174;2023-08-24T07:04:10;5.07;;;4.05;;
19883;SDS011;10104;50.732;10.174;2023-08-24T07:06:50;4.63;;;4.18;;
19883;SDS011;10104;50.732;10.174;2023-08-24T07:09:31;4.38;;;3.95;;
19883;SDS011;10104;50.732;10.174;2023-08-24T07:12:11;7.97;;;3.88;;
19883;SDS011;10104;50.732;10.174;2023-08-24T07:14:51;5.72;;;3.80;;
19883;SDS011;10104;50.732;10.174;2023-08-24T07:17:31;7.30;;;4.10;;
19883;SDS011;10104;50.732;10.174;2023-08-24T07:20:11;6.18;;;3.97;;
19883;SDS011;10104;50.732;10.174;2023-08-24T07:22:52;6.88;;;4.05;;
19883;SDS011;10104;50.732;10.174;2023-08-24T07:25:33;5.32;;;3.47;;
19883;SDS011;10104;50.732;10.174;2023-08-24T07:28:13;6.53;;;3.83;;
19883;SDS011;10104;50.732;10.174;2023-08-24T07:30:53;11.25;;;4.28;;
19883;SDS011;10104;50.732;10.174;2023-08-24T07:33:36;7.60;;;4.25;;
19883;SDS011;10104;50.732;10.174;2023-08-24T07:36:18;6.15;;;4.28;;
19883;SDS011;10104;50.732;10.174;2023-08-24T07:38:59;9.05;;;3.95;;
19883;SDS011;10104;50.732;10.174;2023-08-24T07:41:39;5.38;;;3.95;;
19883;SDS011;10104;50.732;10.174;2023-08-24T07:44:19;5.40;;;3.50;;
19883;SDS011;10104;50.732;10.174;2023-08-24T07:46:59;6.85;;;4.25;;
19883;SDS011;10104;50.732;10.174;2023-08-24T07:49:39;8.20;;;4.00;;
19883;SDS011;10104;50.732;10.174;2023-08-24T07:52:23;5.25;;;3.88;;
19883;SDS011;10104;50.732;10.174;2023-08-24T07:55:07;5.75;;;4.50;;
19883;SDS011;10104;50.732;10.174;2023-08-24T07:57:48;5.65;;;4.20;;
19883;SDS011;10104;50.732;10.174;2023-08-24T08:00:29;9.07;;;3.90;;
19883;SDS011;10104;50.732;10.174;2023-08-24T08:03:09;7.63;;;3.97;;
19883;SDS011;10104;50.732;10.174;2023-08-24T08:05:49;7.70;;;4.13;;
19883;SDS011;10104;50.732;10.174;2023-08-24T08:08:30;4.93;;;3.75;;
19883;SDS011;10104;50.732;10.174;2023-08-24T08:11:09;5.55;;;3.90;;
19883;SDS011;10104;50.732;10.174;2023-08-24T08:13:50;6.32;;;3.92;;
19883;SDS011;10104;50.732;10.174;2023-08-24T08:16:30;6.85;;;4.10;;
19883;SDS011;10104;50.732;10.174;2023-08-24T08:19:10;6.32;;;4.03;;
19883;SDS011;10104;50.732;10.174;2023-08-24T08:21:51;7.72;;;4.55;;
19883;SDS011;10104;50.732;10.174;2023-08-24T08:24:31;10.55;;;4.78;;
19883;SDS011;10104;50.732;10.174;2023-08-24T08:27:11;10.43;;;4.40;;
19883;SDS011;10104;50.732;10.174;2023-08-24T08:29:51;5.93;;;3.78;;
19883;SDS011;10104;50.732;10.174;2023-08-24T08:32:31;5.53;;;4.50;;
19883;SDS011;10104;50.732;10.174;2023-08-24T08:35:12;9.32;;;4.00;;
19883;SDS011;10104;50.732;10.174;2023-08-24T08:37:52;6.90;;;3.78;;
19883;SDS011;10104;50.732;10.174;2023-08-24T08:40:33;9.05;;;3.78;;
19883;SDS011;10104;50.732;10.174;2023-08-24T08:43:17;4.45;;;3.67;;
19883;SDS011;10104;50.732;10.174;2023-08-24T08:45:57;4.68;;;3.30;;
19883;SDS011;10104;50.732;10.174;2023-08-24T08:48:40;5.65;;;3.95;;
19883;SDS011;10104;50.732;10.174;2023-08-24T08:51:21;7.07;;;3.53;;
19883;SDS011;10104;50.732;10.174;2023-08-24T08:54:02;4.88;;;3.63;;
19883;SDS011;10104;50.732;10.174;2023-08-24T08:56:45;6.10;;;4.32;;
19883;SDS011;10104;50.732;10.174;2023-08-24T08:59:26;5.90;;;3.88;;
19883;SDS011;10104;50.732;10.174;2023-08-24T09:02:10;6.03;;;3.92;;
19883;SDS011;10104;50.732;10.174;2023-08-24T09:04:54;6.65;;;3.58;;
19883;SDS011;10104;50.732;10.174;2023-08-24T09:07:35;5.68;;;3.75;;
19883;SDS011;10104;50.732;10.174;2023-08-24T09:10:19;5.78;;;3.67;;
19883;SDS011;10104;50.732;10.174;2023-08-24T09:12:59;10.07;;;3.75;;
19883;SDS011;10104;50.732;10.174;2023-08-24T09:15:39;4.53;;;3.50;;
19883;SDS011;10104;50.732;10.174;2023-08-24T09:18:20;5.43;;;3.50;;
19883;SDS011;10104;50.732;10.174;2023-08-24T09:21:00;5.30;;;3.45;;
19883;SDS011;10104;50.732;10.174;2023-08-24T09:23:44;5.25;;;3.55;;
19883;SDS011;10104;50.732;10.174;2023-08-24T09:26:29;7.15;;;4.03;;
19883;SDS011;10104;50.732;10.174;2023-08-24T09:29:13;5.57;;;4.10;;
19883;SDS011;10104;50.732;10.174;2023-08-24T09:31:55;4.82;;;3.30;;
19883;SDS011;10104;50.732;10.174;2023-08-24T09:34:35;4.93;;;3.60;;
19883;SDS011;10104;50.732;10.174;2023-08-24T09:37:16;6.50;;;3.38;;
19883;SDS011;10104;50.732;10.174;2023-08-24T09:40:04;5.82;;;3.00;;
19883;SDS011;10104;50.732;10.174;2023-08-24T09:42:48;6.22;;;2.80;;
19883;SDS011;10104;50.732;10.174;2023-08-24T09:45:28;6.38;;;3.10;;
19883;SDS011;10104;50.732;10.174;2023-08-24T09:48:08;4.47;;;2.67;;
19883;SDS011;10104;50.732;10.174;2023-08-24T09:50:50;8.52;;;3.03;;
19883;SDS011;10104;50.732;10.174;2023-08-24T09:53:32;4.80;;;2.53;;
19883;SDS011;10104;50.732;10.174;2023-08-24T09:56:17;8.07;;;2.88;;
19883;SDS011;10104;50.732;10.174;2023-08-24T09:59:00;4.45;;;2.80;;
19883;SDS011;10104;50.732;10.174;2023-08-24T10:01:50;5.45;;;2.85;;
19883;SDS011;10104;50.732;10.174;2023-08-24T10:04:33;6.10;;;2.63;;
19883;SDS011;10104;50.732;10.174;2023-08-24T10:07:15;6.00;;;2.80;;
19883;SDS011;10104;50.732;10.174;2023-08-24T10:10:03;6.63;;;2.78;;
19883;SDS011;10104;50.732;10.174;2023-08-24T10:12:50;4.45;;;2.85;;
19883;SDS011;10104;50.732;10.174;2023-08-24T10:15:32;5.00;;;2.80;;
19883;SDS011;10104;50.732;10.174;2023-08-24T10:18:14;4.25;;;2.70;;
19883;SDS011;10104;50.732;10.174;2023-08-24T10:20:56;4.97;;;2.90;;
19883;SDS011;10104;50.732;10.174;2023-08-24T10:23:37;5.55;;;2.83;;
19883;SDS011;10104;50.732;10.174;2023-08-24T10:26:18;5.00;;;2.75;;
19883;SDS011;10104;50.732;10.174;2023-08-24T10:29:07;8.45;;;2.83;;
19883;SDS011;10104;50.732;10.174;2023-08-24T10:31:48;7.30;;;2.70;;
19883;SDS011;10104;50.732;10.174;2023-08-24T10:34:29;5.47;;;2.58;;
19883;SDS011;10104;50.732;10.174;2023-08-24T10:37:10;4.88;;;2.60;;
19883;SDS011;10104;50.732;10.174;2023-08-24T10:39:51;5.65;;;2.85;;
19883;SDS011;10104;50.732;10.174;2023-08-24T10:42:46;5.63;;;2.85;;
19883;SDS011;10104;50.732;10.174;2023-08-24T10:45:38;3.20;;;2.33;;
19883;SDS011;10104;50.732;10.174;2023-08-24T10:51:24;4.15;;;2.53;;
19883;SDS011;10104;50.732;10.174;2023-08-24T10:54:06;5.50;;;2.30;;
19883;SDS011;10104;50.732;10.174;2023-08-24T10:56:52;4.50;;;2.55;;
19883;SDS011;10104;50.732;10.174;2023-08-24T10:59:38;3.42;;;2.40;;
19883;SDS011;10104;50.732;10.174;2023-08-24T11:02:30;4.15;;;2.40;;
19883;SDS011;10104;50.732;10.174;2023-08-24T11:07:57;3.58;;;2.60;;
19883;SDS011;10104;50.732;10.174;2023-08-24T11:13:23;4.20;;;2.65;;
19883;SDS011;10104;50.732;10.174;2023-08-24T11:16:03;5.57;;;2.47;;
19883;SDS011;10104;50.732;10.174;2023-08-24T11:18:49;3.53;;;2.42;;
19883;SDS011;10104;50.732;10.174;2023-08-24T11:21:29;5.65;;;2.05;;
19883;SDS011;10104;50.732;10.174;2023-08-24T11:24:09;3.70;;;2.20;;
19883;SDS011;10104;50.732;10.174;2023-08-24T11:26:51;4.13;;;2.13;;
19883;SDS011;10104;50.732;10.174;2023-08-24T11:29:32;6.25;;;2.58;;
19883;SDS011;10104;50.732;10.174;2023-08-24T11:32:12;4.65;;;2.38;;
19883;SDS011;10104;50.732;10.174;2023-08-24T11:34:53;2.63;;;2.33;;
19883;SDS011;10104;50.732;10.174;2023-08-24T11:37:34;4.18;;;2.33;;
19883;SDS011;10104;50.732;10.174;2023-08-24T11:40:17;2.55;;;2.08;;
19883;SDS011;10104;50.732;10.174;2023-08-24T11:42:59;3.85;;;2.53;;
19883;SDS011;10104;50.732;10.174;2023-08-24T11:45:40;4.15;;;2.60;;
19883;SDS011;10104;50.732;10.174;2023-08-24T11:48:25;4.30;;;2.80;;
19883;SDS011;10104;50.732;10.174;2023-08-24T11:51:10;3.28;;;2.40;;
19883;SDS011;10104;50.732;10.174;2023-08-24T11:53:58;4.10;;;2.60;;
19883;SDS011;10104;50.732;10.174;2023-08-24T11:56:42;3.78;;;2.70;;
19883;SDS011;10104;50.732;10.174;2023-08-24T11:59:22;4.88;;;2.42;;
19883;SDS011;10104;50.732;10.174;2023-08-24T12:02:03;4.38;;;2.50;;
19883;SDS011;10104;50.732;10.174;2023-08-24T12:04:48;4.65;;;2.40;;
19883;SDS011;10104;50.732;10.174;2023-08-24T12:07:35;3.35;;;2.20;;
19883;SDS011;10104;50.732;10.174;2023-08-24T12:10:16;3.13;;;2.58;;
19883;SDS011;10104;50.732;10.174;2023-08-24T12:13:03;3.47;;;2.65;;
19883;SDS011;10104;50.732;10.174;2023-08-24T12:15:49;5.07;;;2.53;;
19883;SDS011;10104;50.732;10.174;2023-08-24T12:18:35;5.22;;;2.75;;
19883;SDS011;10104;50.732;10.174;2023-08-24T12:21:16;5.97;;;2.83;;
19883;SDS011;10104;50.732;10.174;2023-08-24T12:24:06;5.82;;;2.40;;
19883;SDS011;10104;50.732;10.174;2023-08-24T12:26:54;5.15;;;2.58;;
19883;SDS011;10104;50.732;10.174;2023-08-24T12:29:43;3.67;;;2.45;;
19883;SDS011;10104;50.732;10.174;2023-08-24T12:32:24;3.42;;;2.53;;
19883;SDS011;10104;50.732;10.174;2023-08-24T12:35:06;7.97;;;2.70;;
19883;SDS011;10104;50.732;10.174;2023-08-24T12:37:47;7.43;;;2.83;;
19883;SDS011;10104;50.732;10.174;2023-08-24T12:40:27;5.07;;;2.70;;
19883;SDS011;10104;50.732;10.174;2023-08-24T12:43:07;4.93;;;2.55;;
19883;SDS011;10104;50.732;10.174;2023-08-24T12:45:47;6.68;;;2.50;;
19883;SDS011;10104;50.732;10.174;2023-08-24T12:48:28;4.65;;;2.78;;
19883;SDS011;10104;50.732;10.174;2023-08-24T12:51:08;6.50;;;3.00;;
19883;SDS011;10104;50.732;10.174;2023-08-24T12:53:49;4.95;;;3.05;;
19883;SDS011;10104;50.732;10.174;2023-08-24T12:56:29;4.28;;;2.97;;
19883;SDS011;10104;50.732;10.174;2023-08-24T12:59:09;3.78;;;2.90;;
19883;SDS011;10104;50.732;10.174;2023-08-24T13:01:53;3.28;;;2.72;;
19883;SDS011;10104;50.732;10.174;2023-08-24T13:04:34;4.38;;;3.30;;
19883;SDS011;10104;50.732;10.174;2023-08-24T13:07:14;4.68;;;3.30;;
19883;SDS011;10104;50.732;10.174;2023-08-24T13:09:54;5.15;;;3.08;;
19883;SDS011;10104;50.732;10.174;2023-08-24T13:12:34;6.47;;;3.05;;
19883;SDS011;10104;50.732;10.174;2023-08-24T13:15:15;4.32;;;3.13;;
19883;SDS011;10104;50.732;10.174;2023-08-24T13:17:54;6.05;;;3.13;;
19883;SDS011;10104;50.732;10.174;2023-08-24T13:20:36;4.10;;;2.70;;
19883;SDS011;10104;50.732;10.174;2023-08-24T13:23:16;5.47;;;3.00;;
19883;SDS011;10104;50.732;10.174;2023-08-24T13:25:57;3.63;;;2.97;;
19883;SDS011;10104;50.732;10.174;2023-08-24T13:28:37;4.68;;;2.97;;
19883;SDS011;10104;50.732;10.174;2023-08-24T13:31:18;4.75;;;2.67;;
19883;SDS011;10104;50.732;10.174;2023-08-24T13:34:01;5.03;;;3.03;;
19883;SDS011;10104;50.732;10.174;2023-08-24T13:36:44;3.03;;;2.78;;
19883;SDS011;10104;50.732;10.174;2023-08-24T13:39:27;6.32;;;3.00;;
19883;SDS011;10104;50.732;10.174;2023-08-24T13:42:08;5.95;;;3.15;;
19883;SDS011;10104;50.732;10.174;2023-08-24T13:44:48;3.55;;;2.70;;
19883;SDS011;10104;50.732;10.174;2023-08-24T13:47:28;4.97;;;3.25;;
19883;SDS011;10104;50.732;10.174;2023-08-24T13:50:09;5.35;;;2.70;;
19883;SDS011;10104;50.732;10.174;2023-08-24T13:52:49;6.07;;;2.92;;
19883;SDS011;10104;50.732;10.174;2023-08-24T13:55:30;5.78;;;2.80;;
19883;SDS011;10104;50.732;10.174;2023-08-24T13:58:12;4.07;;;2.65;;
19883;SDS011;10104;50.732;10.174;2023-08-24T14:00:55;3.42;;;2.80;;
19883;SDS011;10104;50.732;10.174;2023-08-24T14:03:37;5.72;;;3.03;;
19883;SDS011;10104;50.732;10.174;2023-08-24T14:06:18;6.95;;;3.25;;
19883;SDS011;10104;50.732;10.174;2023-08-24T14:08:58;6.50;;;2.95;;
19883;SDS011;10104;50.732;10.174;2023-08-24T14:11:38;7.75;;;3.22;;
19883;SDS011;10104;50.732;10.174;2023-08-24T14:14:19;7.35;;;2.90;;
19883;SDS011;10104;50.732;10.174;2023-08-24T14:17:00;6.57;;;2.97;;
19883;SDS011;10104;50.732;10.174;2023-08-24T14:19:40;7.95;;;2.90;;
19883;SDS011;10104;50.732;10.174;2023-08-24T14:22:21;4.68;;;2.72;;
19883;SDS011;10104;50.732;10.174;2023-08-24T14:25:01;5.68;;;3.33;;
19883;SDS011;10104;50.732;10.174;2023-08-24T14:27:41;4.10;;;3.20;;
19883;SDS011;10104;50.732;10.174;2023-08-24T14:30:33;4.13;;;2.72;;
19883;SDS011;10104;50.732;10.174;2023-08-24T14:33:13;3.97;;;2.60;;
19883;SDS011;10104;50.732;10.174;2023-08-24T14:35:54;5.72;;;2.97;;
19883;SDS011;10104;50.732;10.174;2023-08-24T14:38:35;4.07;;;3.17;;
19883;SDS011;10104;50.732;10.174;2023-08-24T14:41:15;4.68;;;2.60;;
19883;SDS011;10104;50.732;10.174;2023-08-24T14:43:56;3.65;;;2.88;;
19883;SDS011;10104;50.732;10.174;2023-08-24T14:46:46;4.50;;;2.80;;
19883;SDS011;10104;50.732;10.174;2023-08-24T14:49:33;7.03;;;3.10;;
19883;SDS011;10104;50.732;10.174;2023-08-24T14:52:19;9.68;;;2.97;;
19883;SDS011;10104;50.732;10.174;2023-08-24T14:55:02;5.82;;;3.17;;
19883;SDS011;10104;50.732;10.174;2023-08-24T14:57:50;4.30;;;2.88;;
19883;SDS011;10104;50.732;10.174;2023-08-24T15:00:38;10.90;;;3.50;;
19883;SDS011;10104;50.732;10.174;2023-08-24T15:03:20;5.97;;;2.95;;
19883;SDS011;10104;50.732;10.174;2023-08-24T15:06:02;4.38;;;2.90;;
19883;SDS011;10104;50.732;10.174;2023-08-24T15:08:46;4.75;;;3.15;;
19883;SDS011;10104;50.732;10.174;2023-08-24T15:11:27;4.30;;;2.75;;
19883;SDS011;10104;50.732;10.174;2023-08-24T15:14:07;5.07;;;2.83;;
19883;SDS011;10104;50.732;10.174;2023-08-24T15:16:48;5.57;;;2.80;;
19883;SDS011;10104;50.732;10.174;2023-08-24T15:19:31;7.38;;;2.80;;
19883;SDS011;10104;50.732;10.174;2023-08-24T15:22:15;6.32;;;2.80;;
19883;SDS011;10104;50.732;10.174;2023-08-24T15:25:02;5.80;;;2.80;;
19883;SDS011;10104;50.732;10.174;2023-08-24T15:27:48;4.75;;;2.75;;
19883;SDS011;10104;50.732;10.174;2023-08-24T15:30:31;7.20;;;3.00;;
19883;SDS011;10104;50.732;10.174;2023-08-24T15:33:16;6.90;;;3.15;;
19883;SDS011;10104;50.732;10.174;2023-08-24T15:35:58;6.97;;;3.15;;
19883;SDS011;10104;50.732;10.174;2023-08-24T15:38:38;5.45;;;3.03;;
19883;SDS011;10104;50.732;10.174;2023-08-24T15:41:18;6.45;;;3.40;;
19883;SDS011;10104;50.732;10.174;2023-08-24T15:43:59;10.85;;;3.25;;
19883;SDS011;10104;50.732;10.174;2023-08-24T15:46:39;5.72;;;3.05;;
19883;SDS011;10104;50.732;10.174;2023-08-24T15:49:19;6.55;;;2.90;;
19883;SDS011;10104;50.732;10.174;2023-08-24T15:51:59;6.30;;;3.35;;
19883;SDS011;10104;50.732;10.174;2023-08-24T15:54:39;5.85;;;2.95;;
19883;SDS011;10104;50.732;10.174;2023-08-24T15:57:22;4.60;;;2.90;;
19883;SDS011;10104;50.732;10.174;2023-08-24T16:00:03;4.55;;;3.30;;
19883;SDS011;10104;50.732;10.174;2023-08-24T16:02:45;5.13;;;3.20;;
19883;SDS011;10104;50.732;10.174;2023-08-24T16:05:29;3.88;;;3.08;;
19883;SDS011;10104;50.732;10.174;2023-08-24T16:08:14;7.95;;;3.40;;